createdAt,value
2022-08-20T00:01:10.169Z,30.70
2022-08-20T00:03:39.698Z,30.90
2022-08-20T00:06:08.959Z,31.50
2022-08-20T00:08:36.331Z,31.80
2022-08-20T00:11:06.355Z,32.00
2022-08-20T00:13:41.459Z,32.20
2022-08-20T00:16:08.871Z,32.30
2022-08-20T00:18:37.235Z,32.80
2022-08-20T00:21:08.503Z,32.80
2022-08-20T00:23:44.659Z,32.80
2022-08-20T00:26:13.422Z,32.60
2022-08-20T00:28:40.938Z,32.90
2022-08-20T00:31:11.691Z,32.50
2022-08-20T00:33:39.319Z,31.90
2022-08-20T00:36:09.386Z,31.60
2022-08-20T00:38:38.220Z,31.30
2022-08-20T00:41:07.024Z,31.50
2022-08-20T00:43:46.378Z,32.00
2022-08-20T00:46:31.630Z,32.00
2022-08-20T00:48:59.930Z,32.60
2022-08-20T00:51:42.554Z,32.40
2022-08-20T00:54:23.678Z,32.20
2022-08-20T00:56:57.383Z,32.50
2022-08-20T00:59:29.785Z,33.60
2022-08-20T01:01:57.931Z,34.80
2022-08-20T01:04:28.430Z,36.00
2022-08-20T01:06:55.700Z,36.60
2022-08-20T01:09:33.391Z,37.20
2022-08-20T01:12:12.538Z,37.60
2022-08-20T01:14:47.889Z,39.10
2022-08-20T01:17:20.900Z,38.00
2022-08-20T01:19:57.374Z,38.00
2022-08-20T01:23:04.504Z,37.80
2022-08-20T01:25:49.513Z,37.20
2022-08-20T01:28:21.338Z,37.10
2022-08-20T01:30:48.523Z,38.30
2022-08-20T01:33:18.123Z,38.70
2022-08-20T01:35:45.151Z,38.70
2022-08-20T01:38:12.661Z,38.80
2022-08-20T01:41:07.725Z,39.40
2022-08-20T01:43:37.162Z,39.70
2022-08-20T01:46:05.107Z,41.40
2022-08-20T01:48:32.891Z,42.10
2022-08-20T01:51:04.657Z,43.30
2022-08-20T01:53:35.358Z,44.20
2022-08-20T01:56:06.298Z,44.30
2022-08-20T01:58:41.088Z,43.80
2022-08-20T02:01:08.405Z,43.20
2022-08-20T02:03:39.715Z,43.10
2022-08-20T02:06:10.471Z,42.90
2022-08-20T02:08:37.469Z,42.70
2022-08-20T02:11:04.458Z,42.80
2022-08-20T02:13:32.763Z,42.20
2022-08-20T02:15:59.867Z,41.80
2022-08-20T02:18:27.233Z,41.70
2022-08-20T02:20:54.357Z,41.60
2022-08-20T02:23:21.324Z,41.60
2022-08-20T02:25:48.998Z,41.70
2022-08-20T02:28:19.803Z,41.30
2022-08-20T02:30:52.380Z,41.60
2022-08-20T02:33:24.097Z,41.20
2022-08-20T02:35:53.835Z,41.30
2022-08-20T02:38:20.874Z,41.60
2022-08-20T02:40:49.185Z,41.80
2022-08-20T02:43:18.369Z,42.10
2022-08-20T02:45:45.741Z,42.60
2022-08-20T02:48:21.343Z,42.60
2022-08-20T02:51:05.517Z,42.70
2022-08-20T02:53:34.923Z,42.10
2022-08-20T02:56:02.412Z,42.30
2022-08-20T02:58:29.400Z,42.10
2022-08-20T03:00:56.955Z,42.00
2022-08-20T03:03:24.762Z,41.80
2022-08-20T03:05:54.482Z,41.70
2022-08-20T03:08:22.063Z,41.30
2022-08-20T03:10:50.043Z,41.00
2022-08-20T03:13:18.676Z,40.40
2022-08-20T03:15:49.741Z,39.30
2022-08-20T03:18:18.794Z,39.00
2022-08-20T03:20:46.168Z,39.00
2022-08-20T03:23:19.984Z,38.50
2022-08-20T03:25:47.621Z,37.80
2022-08-20T03:28:15.266Z,39.00
2022-08-20T03:30:42.781Z,38.90
2022-08-20T03:33:10.355Z,38.80
2022-08-20T03:35:38.721Z,39.20
2022-08-20T03:38:11.619Z,39.30
2022-08-20T03:40:39.023Z,38.80
2022-08-20T03:43:11.335Z,39.60
2022-08-20T03:45:40.868Z,39.70
2022-08-20T03:48:15.281Z,39.90
2022-08-20T03:50:42.543Z,40.10
2022-08-20T03:53:13.094Z,40.20
2022-08-20T03:55:45.522Z,40.00
2022-08-20T03:58:29.839Z,41.30
2022-08-20T04:01:01.429Z,39.90
2022-08-20T04:03:28.805Z,39.50
2022-08-20T04:05:55.960Z,39.30
2022-08-20T04:08:26.961Z,39.80
2022-08-20T04:10:57.683Z,40.30
2022-08-20T04:13:25.850Z,40.70
2022-08-20T04:15:55.531Z,40.90
2022-08-20T04:18:24.375Z,40.90
2022-08-20T04:20:52.664Z,40.90
2022-08-20T04:23:21.298Z,41.00
2022-08-20T04:25:48.613Z,41.10
2022-08-20T04:28:28.230Z,40.70
2022-08-20T04:30:57.267Z,41.10
2022-08-20T04:33:34.076Z,41.20
2022-08-20T04:36:05.520Z,41.10
2022-08-20T04:38:50.683Z,41.50
2022-08-20T04:41:23.743Z,41.80
2022-08-20T04:43:54.138Z,42.10
2022-08-20T04:46:23.928Z,42.70
2022-08-20T04:48:51.017Z,43.30
2022-08-20T04:51:18.745Z,43.60
2022-08-20T04:53:52.260Z,43.70
2022-08-20T04:56:26.480Z,43.30
2022-08-20T04:58:56.884Z,43.40
2022-08-20T05:01:26.133Z,44.00
2022-08-20T05:03:55.309Z,44.70
2022-08-20T05:06:25.902Z,45.50
2022-08-20T05:08:54.420Z,45.80
2022-08-20T05:11:33.033Z,46.00
2022-08-20T05:14:09.190Z,46.20
2022-08-20T05:16:38.452Z,46.20
2022-08-20T05:19:08.750Z,46.40
2022-08-20T05:21:36.199Z,46.30
2022-08-20T05:24:03.332Z,46.80
2022-08-20T05:26:30.184Z,47.20
2022-08-20T05:28:59.056Z,47.20
2022-08-20T05:31:33.345Z,47.70
2022-08-20T05:34:10.393Z,47.50
2022-08-20T05:36:49.374Z,47.30
2022-08-20T05:39:19.255Z,47.30
2022-08-20T05:41:46.405Z,48.20
2022-08-20T05:44:14.781Z,48.00
2022-08-20T05:46:44.438Z,47.60
2022-08-20T05:49:15.558Z,47.40
2022-08-20T05:51:43.566Z,47.10
2022-08-20T05:54:11.279Z,46.30
2022-08-20T05:56:38.372Z,46.10
2022-08-20T05:59:06.615Z,46.10
2022-08-20T06:01:35.651Z,45.80
2022-08-20T06:04:21.616Z,45.80
2022-08-20T06:06:48.820Z,45.90
2022-08-20T06:09:28.704Z,46.00
2022-08-20T06:11:59.933Z,46.00
2022-08-20T06:14:27.004Z,45.60
2022-08-20T06:16:57.805Z,45.30
2022-08-20T06:19:26.976Z,46.00
2022-08-20T06:21:54.747Z,46.00
2022-08-20T06:24:21.756Z,46.90
2022-08-20T06:26:54.657Z,45.30
2022-08-20T06:29:21.666Z,45.10
2022-08-20T06:31:48.670Z,45.20
2022-08-20T06:34:15.595Z,44.80
2022-08-20T06:36:42.540Z,44.50
2022-08-20T06:39:09.432Z,44.50
2022-08-20T06:41:37.256Z,44.40
2022-08-20T06:44:05.735Z,44.80
2022-08-20T06:46:33.171Z,44.60
2022-08-20T06:49:00.332Z,44.10
2022-08-20T06:51:27.358Z,44.10
2022-08-20T06:53:54.406Z,44.10
2022-08-20T06:56:21.439Z,44.30
2022-08-20T06:58:49.575Z,44.00
2022-08-20T07:01:21.262Z,44.00
2022-08-20T07:03:55.804Z,44.10
2022-08-20T07:06:25.735Z,44.20
2022-08-20T07:08:53.802Z,44.00
2022-08-20T07:11:26.657Z,45.30
2022-08-20T07:13:56.764Z,45.40
2022-08-20T07:16:24.357Z,45.30
2022-08-20T07:18:51.389Z,44.60
2022-08-20T07:21:18.328Z,44.00
2022-08-20T07:23:45.419Z,43.80
2022-08-20T07:26:13.297Z,43.80
2022-08-20T07:28:40.885Z,43.90
2022-08-20T07:31:26.963Z,44.90
2022-08-20T07:33:54.051Z,45.90
2022-08-20T07:36:20.919Z,46.60
2022-08-20T07:38:51.097Z,44.10
2022-08-20T07:41:19.315Z,39.80
2022-08-20T07:43:47.703Z,35.10
2022-08-20T07:46:21.604Z,29.90
2022-08-20T07:48:50.495Z,27.60
2022-08-20T07:51:22.429Z,25.50
2022-08-20T07:53:51.718Z,21.10
2022-08-20T07:56:24.338Z,20.90
2022-08-20T07:58:55.706Z,21.00
2022-08-20T08:01:30.282Z,21.00
2022-08-20T08:03:59.020Z,20.40
2022-08-20T08:06:29.098Z,19.90
2022-08-20T08:09:11.920Z,19.00
2022-08-20T08:11:46.430Z,19.10
2022-08-20T08:14:16.629Z,19.20
2022-08-20T08:16:45.680Z,18.90
2022-08-20T08:19:15.645Z,18.60
2022-08-20T08:21:43.659Z,18.50
2022-08-20T08:24:14.357Z,18.20
2022-08-20T08:26:44.245Z,17.70
2022-08-20T08:29:12.617Z,18.20
2022-08-20T08:31:42.729Z,17.60
2022-08-20T08:34:09.871Z,16.40
2022-08-20T08:36:39.307Z,16.10
2022-08-20T08:39:06.786Z,16.20
2022-08-20T08:41:41.350Z,16.50
2022-08-20T08:44:23.270Z,16.70
2022-08-20T08:46:57.336Z,15.70
2022-08-20T08:49:37.510Z,16.00
2022-08-20T08:52:29.348Z,16.20
2022-08-20T08:55:05.744Z,16.00
2022-08-20T08:57:32.994Z,21.20
2022-08-20T09:00:05.512Z,25.00
2022-08-20T09:02:34.398Z,28.90
2022-08-20T09:05:04.289Z,33.30
2022-08-20T09:07:33.586Z,35.20
2022-08-20T09:10:02.375Z,36.60
2022-08-20T09:12:29.569Z,36.80
2022-08-20T09:14:57.420Z,36.20
2022-08-20T09:17:25.029Z,35.90
2022-08-20T09:19:52.514Z,35.40
2022-08-20T09:22:22.864Z,34.40
2022-08-20T09:24:49.891Z,33.60
2022-08-20T09:27:17.268Z,33.20
2022-08-20T09:29:44.415Z,32.90
2022-08-20T09:32:18.947Z,32.30
2022-08-20T09:34:52.598Z,31.60
2022-08-20T09:37:20.012Z,30.80
2022-08-20T09:39:48.249Z,30.60
2022-08-20T09:42:18.529Z,30.40
2022-08-20T09:44:45.976Z,29.80
2022-08-20T09:47:14.192Z,29.70
2022-08-20T09:49:41.229Z,29.10
2022-08-20T09:52:11.618Z,28.90
2022-08-20T09:54:46.280Z,29.00
2022-08-20T09:57:16.628Z,28.50
2022-08-20T09:59:44.748Z,29.00
2022-08-20T10:02:11.737Z,29.50
2022-08-20T10:04:38.683Z,30.90
2022-08-20T10:07:10.017Z,31.40
2022-08-20T10:09:38.384Z,32.10
2022-08-20T10:12:07.286Z,31.60
2022-08-20T10:14:34.178Z,31.10
2022-08-20T10:17:02.572Z,28.40
2022-08-20T10:19:31.456Z,27.90
2022-08-20T10:21:59.431Z,29.10
2022-08-20T10:24:27.106Z,29.50
2022-08-20T10:26:59.753Z,28.90
2022-08-20T10:29:28.960Z,30.00
2022-08-20T10:31:57.532Z,30.00
2022-08-20T10:34:25.336Z,28.70
2022-08-20T10:36:52.337Z,28.80
2022-08-20T10:39:19.306Z,27.70
2022-08-20T10:41:46.522Z,27.70
2022-08-20T10:44:13.500Z,26.20
2022-08-20T10:46:40.553Z,26.00
2022-08-20T10:49:07.567Z,27.40
2022-08-20T10:51:34.550Z,27.40
2022-08-20T10:54:01.704Z,27.20
2022-08-20T10:56:28.563Z,27.20
2022-08-20T10:58:55.532Z,27.10
2022-08-20T11:01:32.876Z,27.20
2022-08-20T11:04:00.946Z,27.10
2022-08-20T11:06:28.140Z,27.00
2022-08-20T11:08:56.926Z,27.00
2022-08-20T11:11:25.455Z,28.80
2022-08-20T11:13:52.369Z,28.40
2022-08-20T11:16:19.241Z,29.00
2022-08-20T11:18:47.558Z,30.20
2022-08-20T11:21:15.551Z,32.50
2022-08-20T11:23:42.480Z,31.90
2022-08-20T11:26:10.168Z,33.10
2022-08-20T11:28:38.231Z,34.80
2022-08-20T11:31:05.318Z,34.40
2022-08-20T11:33:32.246Z,32.10
2022-08-20T11:35:59.544Z,35.80
2022-08-20T11:38:27.008Z,35.70
2022-08-20T11:40:54.037Z,33.30
2022-08-20T11:43:20.989Z,29.70
2022-08-20T11:45:54.505Z,29.20
2022-08-20T11:48:21.844Z,34.10
2022-08-20T11:50:49.515Z,33.10
2022-08-20T11:53:16.777Z,30.00
2022-08-20T11:55:44.251Z,30.70
2022-08-20T11:58:11.363Z,31.30
2022-08-20T12:00:38.517Z,31.00
2022-08-20T12:03:10.268Z,30.10
2022-08-20T12:05:41.381Z,31.50
2022-08-20T12:08:09.214Z,30.40
2022-08-20T12:10:37.176Z,27.00
2022-08-20T12:13:05.297Z,27.10
2022-08-20T12:15:34.662Z,29.10
2022-08-20T12:18:01.691Z,27.20
2022-08-20T12:20:28.683Z,27.20
2022-08-20T12:22:55.666Z,25.80
2022-08-20T12:25:26.415Z,25.40
2022-08-20T12:27:53.511Z,26.80
2022-08-20T12:30:23.958Z,26.10
2022-08-20T12:32:51.211Z,24.00
2022-08-20T12:35:19.129Z,24.90
2022-08-20T12:37:47.042Z,22.40
2022-08-20T12:40:32.437Z,22.90
2022-08-20T12:43:02.092Z,23.50
2022-08-20T12:45:30.195Z,22.40
2022-08-20T12:48:06.260Z,21.70
2022-08-20T12:50:34.633Z,20.70
2022-08-20T12:53:02.774Z,21.80
2022-08-20T12:55:30.635Z,18.90
2022-08-20T12:58:00.472Z,18.00
2022-08-20T13:00:36.943Z,15.20
2022-08-20T13:03:06.023Z,13.90
2022-08-20T13:05:34.263Z,14.60
2022-08-20T13:08:01.510Z,16.50
2022-08-20T13:10:35.495Z,18.10
2022-08-20T13:13:03.012Z,20.00
2022-08-20T13:15:33.441Z,20.20
2022-08-20T13:18:03.270Z,21.40
2022-08-20T13:20:30.998Z,22.20
2022-08-20T13:23:01.835Z,23.10
2022-08-20T13:25:28.822Z,25.50
2022-08-20T13:27:58.824Z,24.80
2022-08-20T13:30:26.216Z,26.40
2022-08-20T13:32:53.234Z,27.10
2022-08-20T13:35:20.609Z,26.10
2022-08-20T13:37:48.658Z,27.10
2022-08-20T13:40:16.132Z,24.90
2022-08-20T13:42:43.284Z,26.00
2022-08-20T13:45:10.988Z,23.80
2022-08-20T13:47:40.534Z,23.90
2022-08-20T13:50:13.938Z,22.50
2022-08-20T13:52:42.692Z,21.30
2022-08-20T13:55:12.809Z,20.20
2022-08-20T13:57:40.806Z,19.40
2022-08-20T14:00:12.705Z,19.90
2022-08-20T14:02:41.608Z,19.60
2022-08-20T14:05:09.730Z,18.20
2022-08-20T14:07:38.041Z,16.40
2022-08-20T14:10:12.420Z,16.50
2022-08-20T14:12:39.576Z,12.70
2022-08-20T14:15:08.974Z,16.10
2022-08-20T14:17:38.664Z,16.10
2022-08-20T14:20:15.067Z,16.00
2022-08-20T14:22:43.200Z,15.80
2022-08-20T14:25:13.059Z,17.10
2022-08-20T14:27:42.006Z,17.40
2022-08-20T14:30:13.771Z,17.70
2022-08-20T14:32:41.133Z,17.40
2022-08-20T14:35:10.121Z,18.60
2022-08-20T14:37:40.532Z,18.50
2022-08-20T14:40:11.217Z,19.00
2022-08-20T14:42:38.770Z,18.10
2022-08-20T14:45:07.458Z,17.40
2022-08-20T14:47:41.152Z,17.00
2022-08-20T14:50:15.962Z,17.50
2022-08-20T14:52:43.754Z,18.90
2022-08-20T14:55:17.371Z,16.70
2022-08-20T14:57:45.173Z,16.30
2022-08-20T15:00:17.978Z,16.00
2022-08-20T15:02:45.991Z,14.20
2022-08-20T15:05:13.375Z,14.00
2022-08-20T15:07:43.197Z,16.30
2022-08-20T15:10:21.780Z,14.50
2022-08-20T15:12:48.803Z,13.90
2022-08-20T15:15:17.186Z,11.50
2022-08-20T15:17:47.705Z,9.90
2022-08-20T15:20:20.574Z,9.70
2022-08-20T15:22:49.853Z,7.20
2022-08-20T15:25:19.804Z,6.30
2022-08-20T15:27:47.205Z,7.10
2022-08-20T15:30:20.562Z,7.80
2022-08-20T15:32:51.430Z,6.30
2022-08-20T15:35:25.858Z,6.30
2022-08-20T15:37:56.310Z,6.60
2022-08-20T15:40:28.150Z,7.60
2022-08-20T15:42:59.585Z,8.30
2022-08-20T15:45:28.395Z,5.40
2022-08-20T15:48:09.769Z,5.40
2022-08-20T15:51:05.425Z,3.60
2022-08-20T15:53:58.175Z,2.80
2022-08-20T15:57:07.027Z,5.40
2022-08-20T15:59:52.082Z,4.00
2022-08-20T16:02:55.417Z,3.50
2022-08-20T16:05:42.282Z,5.20
2022-08-20T16:08:30.426Z,5.10
2022-08-20T16:11:30.328Z,7.10
2022-08-20T16:14:09.366Z,7.70
2022-08-20T16:16:47.137Z,5.30
2022-08-20T16:19:23.106Z,3.40
2022-08-20T16:21:51.615Z,3.10
2022-08-20T16:24:20.217Z,5.20
2022-08-20T16:26:51.009Z,5.20
2022-08-20T16:29:19.353Z,5.20
2022-08-20T16:31:54.753Z,5.30
2022-08-20T16:34:33.914Z,5.40
2022-08-20T16:37:10.919Z,5.40
2022-08-20T16:40:11.586Z,2.40
2022-08-20T16:42:41.137Z,4.00
2022-08-20T16:45:16.797Z,5.10
2022-08-20T16:47:46.469Z,4.20
2022-08-20T16:50:23.925Z,4.10
2022-08-20T16:52:51.820Z,5.00
2022-08-20T16:55:21.417Z,5.00
2022-08-20T16:57:49.961Z,5.10
2022-08-20T17:00:23.318Z,5.10
2022-08-20T17:02:53.481Z,5.20
2022-08-20T17:05:22.451Z,4.00
2022-08-20T17:07:53.568Z,4.00
2022-08-20T17:10:31.299Z,4.30
2022-08-20T17:13:04.849Z,5.10
2022-08-20T17:15:35.194Z,4.50
2022-08-20T17:18:25.632Z,5.10
2022-08-20T17:20:53.331Z,3.20
2022-08-20T17:23:22.794Z,5.10
2022-08-20T17:26:25.049Z,5.20
2022-08-20T17:28:56.124Z,2.60
2022-08-20T17:31:38.627Z,4.30
2022-08-20T17:34:20.260Z,3.50
2022-08-20T17:37:08.956Z,4.30
2022-08-20T17:39:46.557Z,4.80
2022-08-20T17:42:26.124Z,3.30
2022-08-20T17:45:08.130Z,4.00
2022-08-20T17:47:37.745Z,5.00
2022-08-20T17:50:30.959Z,5.00
2022-08-20T17:53:19.922Z,4.90
2022-08-20T17:55:53.790Z,4.90
2022-08-20T17:58:32.139Z,4.90
2022-08-20T18:00:59.927Z,4.90
2022-08-20T18:03:27.966Z,4.90
2022-08-20T18:06:10.403Z,5.00
2022-08-20T18:09:11.583Z,4.90
2022-08-20T18:11:55.133Z,4.80
2022-08-20T18:14:50.409Z,6.10
2022-08-20T18:17:54.609Z,6.10
2022-08-20T18:21:03.226Z,6.20
2022-08-20T18:23:35.871Z,6.20
2022-08-20T18:26:18.972Z,6.90
2022-08-20T18:28:53.918Z,6.70
2022-08-20T18:31:29.946Z,7.00
2022-08-20T18:33:57.065Z,7.10
2022-08-20T18:36:29.248Z,7.50
2022-08-20T18:39:07.739Z,7.60
2022-08-20T18:41:41.399Z,7.70
2022-08-20T18:44:10.427Z,8.30
2022-08-20T18:46:59.644Z,8.70
2022-08-20T18:49:35.942Z,8.80
2022-08-20T18:52:37.719Z,9.60
2022-08-20T18:55:27.046Z,9.30
2022-08-20T18:58:03.777Z,10.10
2022-08-20T19:00:41.568Z,10.50
2022-08-20T19:03:08.639Z,11.00
2022-08-20T19:05:59.888Z,12.00
2022-08-20T19:08:38.957Z,12.10
2022-08-20T19:11:42.905Z,12.90
2022-08-20T19:14:22.010Z,13.10
2022-08-20T19:17:04.382Z,14.00
2022-08-20T19:19:33.100Z,14.60
2022-08-20T19:22:01.475Z,15.20
2022-08-20T19:24:31.609Z,15.40
2022-08-20T19:27:07.573Z,15.90
2022-08-20T19:29:43.258Z,15.90
2022-08-20T19:32:28.398Z,16.20
2022-08-20T19:34:58.984Z,16.00
2022-08-20T19:37:39.789Z,16.00
2022-08-20T19:40:33.109Z,16.10
2022-08-20T19:43:12.062Z,15.70
2022-08-20T19:45:54.402Z,16.80
2022-08-20T19:48:36.544Z,16.90
2022-08-20T19:51:10.826Z,17.30
2022-08-20T19:53:45.836Z,17.20
2022-08-20T19:56:22.163Z,17.00
2022-08-20T19:59:21.065Z,17.10
2022-08-20T20:02:02.995Z,16.60
2022-08-20T20:04:54.954Z,17.30
2022-08-20T20:07:24.655Z,18.10
2022-08-20T20:09:55.414Z,18.90
2022-08-20T20:12:23.920Z,19.40
2022-08-20T20:14:54.184Z,19.70
2022-08-20T20:17:24.604Z,19.70
2022-08-20T20:20:16.978Z,19.70
2022-08-20T20:22:57.777Z,19.70
2022-08-20T20:25:33.951Z,19.90
2022-08-20T20:28:28.928Z,19.80
2022-08-20T20:31:07.193Z,19.40
2022-08-20T20:33:44.105Z,20.30
2022-08-20T20:36:18.498Z,20.70
2022-08-20T20:38:58.140Z,21.10
2022-08-20T20:41:28.623Z,21.00
2022-08-20T20:44:20.920Z,21.50
2022-08-20T20:46:51.789Z,21.00
2022-08-20T20:49:24.647Z,20.90
2022-08-20T20:51:56.775Z,20.60
2022-08-20T20:54:40.861Z,20.50
2022-08-20T20:57:19.525Z,20.50
2022-08-20T21:00:14.278Z,20.80
2022-08-20T21:02:41.903Z,20.80
2022-08-20T21:05:10.671Z,21.30
2022-08-20T21:07:50.595Z,21.60
2022-08-20T21:10:19.938Z,21.30
2022-08-20T21:12:52.941Z,21.90
2022-08-20T21:15:22.665Z,22.40
2022-08-20T21:17:49.803Z,22.70
2022-08-20T21:20:17.160Z,23.20
2022-08-20T21:22:44.106Z,23.70
2022-08-20T21:25:11.099Z,24.10
2022-08-20T21:27:38.762Z,24.90
2022-08-20T21:30:06.414Z,25.10
2022-08-20T21:32:33.359Z,25.00
2022-08-20T21:35:00.334Z,24.90
2022-08-20T21:37:27.335Z,25.00
2022-08-20T21:39:54.425Z,24.90
2022-08-20T21:42:29.278Z,25.00
2022-08-20T21:44:58.051Z,24.90
2022-08-20T21:47:25.473Z,24.90
2022-08-20T21:49:52.836Z,24.80
2022-08-20T21:52:19.733Z,24.90
2022-08-20T21:54:46.937Z,24.80
2022-08-20T21:57:23.577Z,24.80
2022-08-20T21:59:50.879Z,24.60
2022-08-20T22:02:19.399Z,24.70
2022-08-20T22:04:46.421Z,24.60
2022-08-20T22:07:14.838Z,24.60
2022-08-20T22:09:42.005Z,24.60
2022-08-20T22:12:24.336Z,24.60
2022-08-20T22:14:51.373Z,24.60
2022-08-20T22:17:18.917Z,24.70
2022-08-20T22:19:45.872Z,24.60
2022-08-20T22:22:15.443Z,24.60
2022-08-20T22:24:42.665Z,24.60
2022-08-20T22:27:09.651Z,24.60
2022-08-20T22:29:36.760Z,24.60
2022-08-20T22:32:04.837Z,24.50
2022-08-20T22:34:34.424Z,24.50
2022-08-20T22:37:02.530Z,24.50
2022-08-20T22:39:29.434Z,24.50
2022-08-20T22:41:56.518Z,24.40
2022-08-20T22:44:23.455Z,24.50
2022-08-20T22:46:55.803Z,24.30
2022-08-20T22:49:27.918Z,24.40
2022-08-20T22:51:55.044Z,24.30
2022-08-20T22:54:24.471Z,24.30
2022-08-20T22:56:55.095Z,24.30
2022-08-20T22:59:22.989Z,24.20
2022-08-20T23:01:51.468Z,24.10
2022-08-20T23:04:31.664Z,24.80
2022-08-20T23:06:59.674Z,24.30
2022-08-20T23:09:27.331Z,25.70
2022-08-20T23:11:54.663Z,24.90
2022-08-20T23:14:22.146Z,24.80
2022-08-20T23:16:58.148Z,25.00
2022-08-20T23:19:25.425Z,25.10
2022-08-20T23:21:52.564Z,25.60
2022-08-20T23:24:20.246Z,25.90
2022-08-20T23:26:53.057Z,26.00
2022-08-20T23:29:25.129Z,26.30
2022-08-20T23:31:54.843Z,26.20
2022-08-20T23:34:22.252Z,26.40
2022-08-20T23:36:50.298Z,26.40
2022-08-20T23:39:17.233Z,26.60
2022-08-20T23:41:47.833Z,27.00
2022-08-20T23:44:26.273Z,27.60
2022-08-20T23:47:00.186Z,28.30
2022-08-20T23:49:29.078Z,28.50
2022-08-20T23:51:57.884Z,28.40
2022-08-20T23:54:24.829Z,27.80
2022-08-20T23:56:51.868Z,27.90
2022-08-20T23:59:24.228Z,28.20
